Terminal Aerodrome Forecast
Issued by NWS Twin Cities, MN

Home | Current Version | Previous Version | Graphics & Text | Print | Product List | Glossary On
Versions: 1 2 3 4 5 6 7 8 9 10 11 12 13 14 15
000
FTUS43 KMPX 261740
TAFSTC
TAF
KSTC 261740Z 2618/2718 33012G20KT P6SM OVC035
     FM270000 35007KT P6SM SCT035
     FM270500 35005KT P6SM SKC
     FM271200 VRB03KT P6SM SKC=

USA.gov is the U.S. government's official web portal to all federal, state and local government web resources and services.